Time;durP1;ratioP1;P1;durP2;ratioP2;P2;SDS_P1;SDS_P2;PMS_P1;PMS_P2;Temp;Humidity;BMP_temperature;BMP_pressure;BME280_temperature;BME280_humidity;BME280_pressure;Samples;Min_cycle;Max_cycle;Signal;HPM_P1;HPM_P2
2021/09/06 00:01:17;;;;;;;17.13;6.93;;;14.40;99.90;;;15.56;100.00;98717.00;5067883;28;20470;-81
2021/09/06 00:03:47;;;;;;;9.03;5.70;;;14.30;99.90;;;15.52;100.00;98718.41;5070595;28;20952;-80
2021/09/06 00:06:16;;;;;;;7.17;5.30;;;14.30;99.90;;;15.59;100.00;98715.78;5069443;28;20444;-81
2021/09/06 00:08:45;;;;;;;16.83;6.60;;;14.40;99.90;;;15.67;100.00;98712.13;5065550;28;20444;-81
2021/09/06 00:11:13;;;;;;;10.80;6.40;;;14.50;99.90;;;15.67;100.00;98709.50;5064488;28;20647;-81
2021/09/06 00:13:43;;;;;;;9.60;6.57;;;14.50;99.90;;;15.63;100.00;98703.00;5070263;28;20500;-81
2021/09/06 00:16:11;;;;;;;11.03;6.60;;;14.40;99.90;;;15.47;100.00;98718.19;5071803;28;20495;-81
2021/09/06 00:18:40;;;;;;;10.83;6.30;;;14.20;99.90;;;15.49;100.00;98716.19;5069180;28;20538;-81
2021/09/06 00:21:10;;;;;;;10.53;6.43;;;14.30;99.90;;;15.51;100.00;98724.72;5057528;28;20516;-81
2021/09/06 00:23:38;;;;;;;15.30;6.60;;;14.40;99.90;;;15.55;100.00;98720.63;5064783;28;20506;-81
2021/09/06 00:26:07;;;;;;;10.23;6.50;;;14.40;99.90;;;15.54;100.00;98724.31;5060319;28;20485;-81
2021/09/06 00:28:36;;;;;;;7.77;6.00;;;14.40;99.90;;;15.50;100.00;98723.09;5070026;28;20449;-81
2021/09/06 00:31:05;;;;;;;6.70;5.33;;;14.30;99.90;;;15.47;100.00;98726.09;5059810;28;20807;-81
2021/09/06 00:33:33;;;;;;;9.57;6.23;;;14.30;99.90;;;15.30;100.00;98722.22;5063393;28;20455;-81
2021/09/06 00:36:02;;;;;;;8.60;6.10;;;14.20;99.90;;;15.33;100.00;98719.19;5060221;28;20888;-81
2021/09/06 00:38:32;;;;;;;9.83;6.10;;;14.20;99.90;;;15.40;100.00;98722.63;5069517;28;20480;-81
2021/09/06 00:41:00;;;;;;;13.77;6.40;;;14.30;99.90;;;15.33;100.00;98710.47;5063273;28;20448;-81
2021/09/06 00:43:29;;;;;;;19.47;6.83;;;14.10;99.90;;;15.22;100.00;98709.22;5060481;28;20441;-81
2021/09/06 00:45:58;;;;;;;11.40;5.67;;;14.00;99.90;;;15.24;100.00;98714.31;5060714;28;20448;-81
2021/09/06 00:48:27;;;;;;;8.07;5.50;;;14.00;99.90;;;15.33;100.00;98707.81;5059186;28;20832;-81
2021/09/06 00:50:56;;;;;;;9.40;5.40;;;14.20;99.90;;;15.32;100.00;98714.91;5064218;28;20448;-83
2021/09/06 00:53:24;;;;;;;10.10;6.23;;;14.10;99.90;;;15.29;100.00;98715.31;5061121;28;20547;-81
2021/09/06 00:55:55;;;;;;;9.27;6.60;;;14.20;99.90;;;15.16;100.00;98715.28;5066652;28;20487;-81
2021/09/06 00:58:25;;;;;;;11.73;6.07;;;14.10;99.90;;;15.22;100.00;98724.22;5065608;28;20946;-81
2021/09/06 01:00:53;;;;;;;10.27;6.70;;;14.10;99.90;;;15.29;100.00;98714.50;5069092;28;20471;-80
2021/09/06 01:03:22;;;;;;;12.27;6.03;;;14.20;99.90;;;15.30;100.00;98724.84;5072774;28;20578;-81
2021/09/06 01:05:51;;;;;;;8.07;5.70;;;14.20;99.90;;;15.29;100.00;98723.22;5074485;28;20502;-81
2021/09/06 01:08:20;;;;;;;11.30;6.27;;;14.20;99.90;;;15.28;100.00;98728.69;5070105;28;20866;-81
2021/09/06 01:10:48;;;;;;;12.00;6.20;;;14.20;99.90;;;15.28;100.00;98724.22;5071478;28;20451;-81
2021/09/06 01:13:19;;;;;;;11.63;7.17;;;14.10;99.90;;;15.24;100.00;98723.00;5069563;28;20459;-81
2021/09/06 01:15:47;;;;;;;9.80;6.10;;;14.10;99.90;;;15.13;100.00;98727.03;5071123;28;20573;-81
2021/09/06 01:18:16;;;;;;;7.43;5.43;;;14.10;99.90;;;15.10;100.00;98722.16;5073390;28;20819;-81
2021/09/06 01:20:45;;;;;;;10.07;6.83;;;14.00;99.90;;;15.13;100.00;98731.50;5069295;28;20448;-81
2021/09/06 01:23:13;;;;;;;9.50;5.73;;;14.10;99.90;;;15.17;100.00;98726.66;5070500;28;20497;-81
2021/09/06 01:25:41;;;;;;;10.97;6.07;;;14.10;99.90;;;15.09;100.00;98731.09;5070905;28;20500;-81
2021/09/06 01:28:11;;;;;;;12.60;6.87;;;14.00;99.90;;;15.07;100.00;98727.81;5072728;28;20505;-81
2021/09/06 01:30:41;;;;;;;9.63;6.10;;;14.00;99.90;;;15.03;100.00;98723.97;5066623;28;20500;-80
2021/09/06 01:33:09;;;;;;;9.50;5.30;;;14.00;99.90;;;14.98;100.00;98722.94;5090167;28;20501;-81
2021/09/06 01:35:38;;;;;;;10.53;6.43;;;13.80;99.90;;;14.99;100.00;98722.72;5069382;28;20530;-81
2021/09/06 01:38:06;;;;;;;9.87;5.60;;;13.80;99.90;;;14.97;100.00;98722.13;5070375;28;20494;-81
2021/09/06 01:40:35;;;;;;;10.27;6.40;;;13.80;99.90;;;14.91;100.00;98722.09;5066432;28;20494;-81
2021/09/06 01:43:04;;;;;;;8.10;6.00;;;13.70;99.90;;;14.95;100.00;98721.53;5069756;28;20456;-81
2021/09/06 01:45:34;;;;;;;10.90;5.70;;;13.80;99.90;;;14.92;100.00;98723.75;5072293;28;20452;-81
2021/09/06 01:48:02;;;;;;;8.20;5.60;;;13.70;99.90;;;14.88;100.00;98727.78;5070027;28;20864;-81
2021/09/06 01:50:31;;;;;;;11.90;6.73;;;13.70;99.90;;;14.89;100.00;98724.13;5066765;28;20525;-81
2021/09/06 01:53:00;;;;;;;10.60;6.43;;;13.70;99.90;;;14.84;100.00;98721.28;5068536;28;20468;-81
2021/09/06 01:55:28;;;;;;;10.53;6.00;;;13.70;99.90;;;14.69;100.00;98728.50;5067488;28;20480;-81
2021/09/06 01:57:56;;;;;;;8.60;5.63;;;13.50;99.90;;;14.68;100.00;98724.25;5071608;28;20991;-81
2021/09/06 02:00:25;;;;;;;10.70;6.80;;;13.40;99.90;;;14.80;100.00;98720.03;5069590;28;20452;-81
2021/09/06 02:02:55;;;;;;;7.80;5.80;;;13.60;99.90;;;14.68;100.00;98726.91;5069192;28;20452;-81
2021/09/06 02:05:24;;;;;;;10.20;6.23;;;13.50;99.90;;;14.60;100.00;98731.31;5078106;28;20451;-81
2021/09/06 02:07:52;;;;;;;8.17;5.33;;;13.30;99.90;;;14.68;100.00;98729.53;5068443;28;20510;-80
2021/09/06 02:10:21;;;;;;;8.03;5.50;;;13.50;99.90;;;14.66;100.00;98731.53;5080114;28;20447;-81
2021/09/06 02:12:49;;;;;;;7.90;6.37;;;13.40;99.90;;;14.65;100.00;98735.19;5071079;28;20499;-81
2021/09/06 02:15:18;;;;;;;9.33;5.70;;;13.50;99.90;;;14.59;100.00;98734.94;5070303;28;20449;-81
2021/09/06 02:17:46;;;;;;;10.17;6.00;;;13.50;99.90;;;14.51;100.00;98732.47;5066707;28;20532;-80
2021/09/06 02:20:16;;;;;;;10.80;6.07;;;13.30;99.90;;;14.54;100.00;98728.66;5069694;28;20509;-81
2021/09/06 02:22:45;;;;;;;9.07;6.10;;;13.40;99.90;;;14.50;100.00;98724.78;5067283;28;20453;-80
2021/09/06 02:25:14;;;;;;;10.93;7.40;;;13.30;99.90;;;14.47;100.00;98725.97;5069479;28;20518;-81
2021/09/06 02:27:42;;;;;;;10.47;6.57;;;13.20;99.90;;;14.51;100.00;98724.56;5066849;28;20499;-80
2021/09/06 02:30:12;;;;;;;10.63;6.40;;;13.30;99.90;;;14.46;100.00;98721.72;5069317;28;20444;-80
2021/09/06 02:32:41;;;;;;;18.10;6.37;;;13.30;99.90;;;14.47;100.00;98720.69;5067064;28;20452;-80
2021/09/06 02:35:10;;;;;;;12.10;6.90;;;13.30;99.90;;;14.46;100.00;98724.34;5067829;28;20480;-81
2021/09/06 02:37:40;;;;;;;10.40;6.60;;;13.30;99.90;;;14.43;100.00;98723.94;5069966;28;20492;-81
2021/09/06 02:40:10;;;;;;;9.90;5.70;;;13.30;99.90;;;14.45;100.00;98719.28;5069600;28;20449;-80
2021/09/06 02:42:39;;;;;;;7.87;5.93;;;13.30;99.90;;;14.52;100.00;98720.13;5068122;28;20807;-80
2021/09/06 02:45:09;;;;;;;9.50;6.40;;;13.40;99.90;;;14.49;100.00;98721.34;5065396;28;20480;-81
2021/09/06 02:47:38;;;;;;;7.50;5.90;;;13.40;99.90;;;14.50;100.00;98724.78;5059895;28;20476;-81
2021/09/06 02:50:07;;;;;;;8.90;6.40;;;13.40;99.90;;;14.52;100.00;98725.38;5064975;28;20929;-81
2021/09/06 02:52:36;;;;;;;9.83;6.00;;;13.40;99.90;;;14.44;100.00;98717.63;5077215;28;21003;-81
2021/09/06 02:55:07;;;;;;;10.30;5.80;;;13.30;99.90;;;14.42;100.00;98723.13;5071138;28;20511;-81
2021/09/06 02:57:36;;;;;;;9.50;6.00;;;13.30;99.90;;;14.41;100.00;98726.75;5071819;28;20487;-81
2021/09/06 03:00:07;;;;;;;9.33;6.50;;;13.30;99.90;;;14.42;100.00;98725.75;5063635;28;20449;-81
2021/09/06 03:02:35;;;;;;;11.07;5.60;;;13.30;99.90;;;14.43;100.00;98719.50;5073930;28;20459;-81
2021/09/06 03:05:07;;;;;;;12.57;7.17;;;13.30;99.90;;;14.44;100.00;98723.72;5060628;28;20555;-81
2021/09/06 03:07:36;;;;;;;7.50;5.63;;;13.40;99.90;;;14.40;100.00;98726.97;5070319;28;20967;-81
2021/09/06 03:10:07;;;;;;;7.40;5.87;;;13.30;99.90;;;14.40;100.00;98714.63;5066960;28;20858;-81
2021/09/06 03:12:35;;;;;;;10.70;6.20;;;13.30;99.90;;;14.42;100.00;98717.84;5063052;28;20563;-81
2021/09/06 03:15:05;;;;;;;7.57;6.37;;;13.30;99.90;;;14.40;100.00;98709.34;5067543;28;20448;-81
2021/09/06 03:17:34;;;;;;;10.80;5.80;;;13.30;99.90;;;14.37;100.00;98714.19;5068745;28;20501;-81
2021/09/06 03:20:04;;;;;;;13.00;6.10;;;13.20;99.90;;;14.37;100.00;98714.19;5070787;28;20447;-82
2021/09/06 03:22:32;;;;;;;8.90;6.13;;;13.30;99.90;;;14.36;100.00;98720.44;5062354;28;20444;-81
2021/09/06 03:25:01;;;;;;;11.03;6.30;;;13.20;99.90;;;14.32;100.00;98716.56;5061495;28;20498;-81
2021/09/06 03:27:32;;;;;;;10.33;5.77;;;13.20;99.90;;;14.33;100.00;98713.75;5066621;28;20850;-81
2021/09/06 03:30:01;;;;;;;8.13;5.80;;;13.20;99.90;;;14.26;100.00;98710.25;5078602;28;20452;-81
2021/09/06 03:32:29;;;;;;;11.83;7.20;;;13.10;99.90;;;14.25;100.00;98706.00;5068471;28;20487;-81
2021/09/06 03:34:58;;;;;;;9.30;5.97;;;13.20;99.90;;;14.29;100.00;98707.22;5078475;28;20828;-81
2021/09/06 03:37:26;;;;;;;9.20;6.40;;;13.20;99.90;;;14.29;100.00;98717.75;5063511;28;21012;-81
2021/09/06 03:39:54;;;;;;;9.03;5.87;;;13.20;99.90;;;14.29;100.00;98716.94;5067801;28;20484;-81
2021/09/06 03:42:23;;;;;;;9.10;6.60;;;13.20;99.90;;;14.25;100.00;98711.25;5064431;28;20456;-81
2021/09/06 03:44:53;;;;;;;14.23;6.87;;;13.10;99.90;;;14.20;100.00;98711.00;5066760;28;20921;-81
2021/09/06 03:47:21;;;;;;;8.77;6.60;;;13.10;99.90;;;14.26;100.00;98712.06;5061986;28;21066;-81
2021/09/06 03:49:50;;;;;;;10.70;6.40;;;13.20;99.90;;;14.24;100.00;98714.88;5065527;28;20481;-81
2021/09/06 03:52:18;;;;;;;12.43;6.70;;;13.10;99.90;;;14.28;100.00;98716.13;5064793;28;20502;-81
2021/09/06 03:54:48;;;;;;;9.90;5.80;;;13.20;99.90;;;14.20;100.00;98711.00;5063482;28;20489;-81
2021/09/06 03:57:16;;;;;;;13.10;6.70;;;13.10;99.90;;;14.20;100.00;98713.63;5061183;28;20484;-81
2021/09/06 03:59:45;;;;;;;9.10;6.33;;;13.10;99.90;;;14.24;100.00;98708.81;5066202;28;20448;-81
2021/09/06 04:02:15;;;;;;;9.67;5.60;;;13.20;99.90;;;14.17;100.00;98716.66;5060576;28;20484;-81
2021/09/06 04:04:43;;;;;;;15.13;7.03;;;13.00;99.90;;;14.11;100.00;98714.81;5065426;28;21279;-81
2021/09/06 04:07:12;;;;;;;9.53;6.50;;;13.00;99.90;;;14.02;100.00;98713.34;5068641;28;20541;-81
2021/09/06 04:09:40;;;;;;;10.80;6.97;;;12.80;99.90;;;14.05;100.00;98715.59;5068067;28;20867;-81
2021/09/06 04:12:09;;;;;;;13.20;6.90;;;12.90;99.90;;;14.07;100.00;98719.63;5070678;28;20456;-81
2021/09/06 04:14:38;;;;;;;15.20;6.53;;;12.90;99.90;;;14.09;100.00;98716.84;5068629;28;20929;-81
2021/09/06 04:17:06;;;;;;;7.93;5.87;;;12.90;99.90;;;14.01;100.00;98722.22;5070152;28;20444;-81
2021/09/06 04:19:37;;;;;;;7.67;5.70;;;12.80;99.90;;;13.95;100.00;98717.75;5068509;28;20464;-81
2021/09/06 04:22:06;;;;;;;8.50;6.27;;;12.70;99.90;;;14.03;100.00;98717.56;5063172;28;20444;-81
2021/09/06 04:24:34;;;;;;;9.37;5.43;;;12.90;99.90;;;14.01;100.00;98715.16;5064706;28;20448;-81
2021/09/06 04:27:03;;;;;;;9.07;6.03;;;12.80;99.90;;;14.02;100.00;98716.75;5063810;28;20495;-81
2021/09/06 04:29:32;;;;;;;18.50;7.33;;;12.90;99.90;;;13.98;100.00;98726.06;5067382;28;20468;-80
2021/09/06 04:32:00;;;;;;;9.60;5.93;;;12.80;99.90;;;14.02;100.00;98729.13;5066898;28;20456;-81
2021/09/06 04:34:29;;;;;;;8.97;6.70;;;12.90;99.90;;;13.97;100.00;98726.25;5067376;28;20858;-81
2021/09/06 04:36:59;;;;;;;10.50;5.43;;;12.80;99.90;;;14.00;100.00;98728.47;5065566;28;20820;-81
2021/09/06 04:39:27;;;;;;;10.47;6.70;;;12.80;99.90;;;13.97;100.00;98728.88;5059199;28;20503;-81
2021/09/06 04:41:56;;;;;;;9.47;6.77;;;12.80;99.90;;;13.99;100.00;98737.38;5065531;28;20461;-81
2021/09/06 04:44:24;;;;;;;8.87;5.80;;;12.90;99.90;;;13.88;100.00;98748.44;5068075;28;20479;-81
2021/09/06 04:46:53;;;;;;;9.40;6.40;;;12.70;99.90;;;13.82;100.00;98744.72;5064802;28;20449;-81
2021/09/06 04:49:21;;;;;;;9.93;6.40;;;12.60;99.90;;;13.86;100.00;98758.31;5067569;28;20502;-81
2021/09/06 04:51:49;;;;;;;10.33;7.10;;;12.70;99.90;;;13.84;100.00;98753.25;5077634;28;20452;-81
2021/09/06 04:54:19;;;;;;;15.40;7.53;;;12.70;99.90;;;13.76;100.00;98749.94;5059924;28;20473;-81
2021/09/06 04:56:48;;;;;;;10.43;7.23;;;12.60;99.90;;;13.79;100.00;98746.94;5059705;28;20455;-81
2021/09/06 04:59:21;;;;;;;10.53;6.67;;;12.70;99.90;;;13.78;100.00;98754.00;5078805;28;20552;-81
2021/09/06 05:01:49;;;;;;;12.17;6.40;;;12.70;99.90;;;13.77;100.00;98756.84;5065641;28;20537;-81
2021/09/06 05:04:18;;;;;;;13.63;6.50;;;12.60;99.90;;;13.74;100.00;98754.59;5070148;28;20623;-81
2021/09/06 05:06:47;;;;;;;10.50;6.60;;;12.60;99.90;;;13.71;100.00;98761.00;5066403;28;20834;-80
2021/09/06 05:09:15;;;;;;;10.70;6.30;;;12.60;99.90;;;13.74;100.00;98759.84;5067534;28;20444;-81
2021/09/06 05:11:45;;;;;;;9.47;6.40;;;12.60;99.90;;;13.75;100.00;98759.63;5065195;28;20869;-81
2021/09/06 05:14:14;;;;;;;11.83;6.17;;;12.60;99.90;;;13.81;100.00;98763.34;5066775;28;20820;-81
2021/09/06 05:16:42;;;;;;;10.70;5.50;;;12.70;99.90;;;13.75;100.00;98764.91;5069455;28;20456;-81
2021/09/06 05:19:11;;;;;;;11.47;6.97;;;12.60;99.90;;;13.75;100.00;98778.03;5077824;28;20552;-81
2021/09/06 05:21:39;;;;;;;9.63;6.53;;;12.60;99.90;;;13.70;100.00;98769.09;5064785;28;20881;-81
2021/09/06 05:24:08;;;;;;;10.13;6.30;;;12.60;99.90;;;13.68;100.00;98768.47;5056498;28;20977;-81
2021/09/06 05:26:36;;;;;;;10.47;6.80;;;12.50;99.90;;;13.68;100.00;98771.09;5061246;28;20954;-81
2021/09/06 05:29:06;;;;;;;8.27;6.20;;;12.50;99.90;;;13.70;100.00;98769.09;5062035;28;20989;-81
2021/09/06 05:31:34;;;;;;;11.30;7.10;;;12.60;99.90;;;13.74;100.00;98775.63;5054895;28;21078;-81
2021/09/06 05:34:03;;;;;;;11.37;6.50;;;12.60;99.90;;;13.75;100.00;98771.97;5053185;28;20535;-81
2021/09/06 05:36:32;;;;;;;11.50;7.37;;;12.60;99.90;;;13.78;100.00;98777.66;5063034;28;20877;-81
2021/09/06 05:39:00;;;;;;;27.50;6.90;;;12.60;99.90;;;13.78;100.00;98774.25;5064840;28;20568;-80
2021/09/06 05:41:28;;;;;;;13.47;6.77;;;12.60;99.90;;;13.83;100.00;98785.81;5073027;28;20894;-81
2021/09/06 05:43:57;;;;;;;10.50;6.90;;;12.70;99.90;;;13.83;100.00;98775.28;5072632;28;20456;-81
2021/09/06 05:46:27;;;;;;;11.50;7.10;;;12.70;99.90;;;13.83;100.00;98779.72;5070906;28;20509;-81
2021/09/06 05:48:55;;;;;;;9.60;6.17;;;12.70;99.90;;;13.85;100.00;98778.53;5070114;28;20530;-81
2021/09/06 05:51:25;;;;;;;16.40;7.40;;;12.80;99.90;;;13.89;100.00;98785.03;5066589;28;20854;-80
2021/09/06 05:53:54;;;;;;;9.77;6.27;;;12.80;99.90;;;13.88;100.00;98780.78;5054509;28;20485;-81
2021/09/06 05:56:22;;;;;;;9.73;6.93;;;12.80;99.90;;;13.92;100.00;98784.66;5058965;28;20509;-81
2021/09/06 05:58:51;;;;;;;13.70;9.10;;;12.80;99.90;;;13.92;100.00;98789.09;5070620;28;20492;-82
2021/09/06 06:01:19;;;;;;;10.20;6.93;;;12.90;99.90;;;13.93;100.00;98791.53;5065621;28;20468;-81
2021/09/06 06:03:49;;;;;;;9.93;7.23;;;12.90;99.90;;;13.97;100.00;98803.31;5056878;28;20445;-80
2021/09/06 06:06:18;;;;;;;9.00;6.40;;;12.90;99.90;;;13.97;100.00;98798.06;5061052;28;20440;-81
2021/09/06 06:08:46;;;;;;;25.30;7.33;;;12.90;99.90;;;13.99;100.00;98805.75;5072145;28;21206;-81
2021/09/06 06:11:15;;;;;;;9.57;6.60;;;13.00;99.90;;;13.95;100.00;98797.41;5072446;28;20491;-81
2021/09/06 06:13:43;;;;;;;9.10;7.20;;;12.90;99.90;;;13.99;100.00;98798.66;5072248;28;20525;-81
2021/09/06 06:16:12;;;;;;;10.30;7.13;;;12.90;99.90;;;14.00;100.00;98796.84;5071030;28;20440;-81
2021/09/06 06:18:40;;;;;;;11.70;7.20;;;12.90;99.90;;;14.01;100.00;98791.41;5066423;28;21071;-81
2021/09/06 06:21:10;;;;;;;9.43;6.73;;;12.90;99.90;;;14.03;100.00;98799.09;5067523;28;20441;-81
2021/09/06 06:23:39;;;;;;;10.00;7.00;;;13.00;99.90;;;14.02;100.00;98795.66;5069779;28;20445;-81
2021/09/06 06:26:07;;;;;;;12.37;7.17;;;13.00;99.90;;;14.03;100.00;98792.03;5065716;28;20481;-81
2021/09/06 06:28:36;;;;;;;12.20;7.80;;;13.10;99.90;;;14.05;100.00;98794.50;5064026;28;20965;-81
2021/09/06 06:31:04;;;;;;;10.77;7.67;;;13.00;99.90;;;14.10;100.00;98799.97;5065787;28;20495;-81
2021/09/06 06:33:33;;;;;;;128.63;62.03;;;13.10;99.90;;;14.10;100.00;98798.16;5062594;28;20805;-80
2021/09/06 06:36:04;;;;;;;28.60;9.47;;;13.20;99.90;;;14.12;100.00;98805.88;5068403;28;20488;-81
2021/09/06 06:38:36;;;;;;;10.90;8.07;;;13.20;99.90;;;14.16;100.00;98803.69;5057332;28;20456;-81
2021/09/06 06:41:05;;;;;;;12.63;7.30;;;13.20;99.90;;;14.19;100.00;98804.09;5062265;28;20448;-80
2021/09/06 06:43:34;;;;;;;11.90;7.03;;;13.30;99.90;;;14.26;100.00;98807.59;5062254;28;20449;-81
2021/09/06 06:46:05;;;;;;;11.50;8.20;;;13.30;99.90;;;14.30;100.00;98803.56;5063928;28;20441;-81
2021/09/06 06:48:34;;;;;;;10.13;7.10;;;13.40;99.90;;;14.36;100.00;98797.56;5058992;28;20503;-81
2021/09/06 06:51:16;;;;;;;11.37;7.40;;;13.40;99.90;;;14.40;100.00;98798.81;5055998;28;20536;-81
2021/09/06 06:53:46;;;;;;;11.10;7.80;;;13.40;99.90;;;14.48;100.00;98796.03;5066795;28;21365;-81
2021/09/06 06:56:14;;;;;;;11.27;7.80;;;13.50;99.90;;;14.53;100.00;98800.72;5064376;28;20515;-82
2021/09/06 06:58:43;;;;;;;11.40;7.63;;;13.60;99.90;;;14.57;100.00;98808.03;5069156;28;20502;-81
2021/09/06 07:01:11;;;;;;;21.20;7.63;;;13.70;99.90;;;14.61;100.00;98801.34;5068173;28;20535;-81
2021/09/06 07:03:40;;;;;;;12.60;7.63;;;13.80;99.90;;;14.68;100.00;98805.88;5070488;28;20452;-81
2021/09/06 07:06:09;;;;;;;11.67;7.50;;;13.80;99.90;;;14.76;100.00;98814.41;5061807;28;20441;-82
2021/09/06 07:08:37;;;;;;;11.67;7.43;;;13.80;99.90;;;14.82;100.00;98812.84;5077812;28;20849;-81
2021/09/06 07:11:08;;;;;;;11.23;7.73;;;13.90;99.90;;;14.87;100.00;98811.22;5064521;28;20872;-81
2021/09/06 07:13:36;;;;;;;9.60;7.03;;;14.00;99.90;;;14.94;100.00;98812.06;5059079;28;20948;-81
2021/09/06 07:16:05;;;;;;;14.83;8.10;;;14.00;99.90;;;15.01;100.00;98822.63;5060059;28;20457;-81
2021/09/06 07:18:34;;;;;;;13.17;7.67;;;14.10;99.90;;;15.08;100.00;98823.47;5060814;28;20453;-81
2021/09/06 07:21:03;;;;;;;10.93;7.90;;;14.20;99.90;;;15.15;100.00;98812.97;5059746;28;20496;-81
2021/09/06 07:23:31;;;;;;;15.93;7.33;;;14.20;99.90;;;15.21;100.00;98817.44;5064268;28;20498;-81
2021/09/06 07:26:00;;;;;;;13.57;8.00;;;14.30;99.90;;;15.29;100.00;98819.91;5066848;28;20517;-81
2021/09/06 07:28:30;;;;;;;13.03;8.47;;;14.30;99.90;;;15.35;100.00;98813.84;5066129;28;20819;-81
2021/09/06 07:30:58;;;;;;;10.60;8.13;;;14.40;99.90;;;15.41;100.00;98819.13;5059339;28;20514;-83
2021/09/06 07:33:27;;;;;;;176.53;99.10;;;14.50;99.90;;;15.48;100.00;98820.00;5062152;28;20461;-81
2021/09/06 07:35:55;;;;;;;22.43;12.20;;;14.60;99.90;;;15.54;100.00;98828.94;5067229;28;20460;-81
2021/09/06 07:38:24;;;;;;;12.07;8.43;;;14.60;99.90;;;15.60;100.00;98834.22;5060433;28;20448;-82
2021/09/06 07:40:53;;;;;;;14.27;8.37;;;14.70;99.90;;;15.66;100.00;98826.50;5059546;28;20519;-82
2021/09/06 07:43:23;;;;;;;10.60;7.70;;;14.80;99.90;;;15.71;100.00;98834.66;5062319;28;20461;-82
2021/09/06 07:45:53;;;;;;;14.20;7.77;;;14.80;99.90;;;15.76;100.00;98838.31;5063184;28;20496;-82
2021/09/06 07:48:22;;;;;;;10.33;7.93;;;14.90;99.90;;;15.79;100.00;98835.25;5060620;28;21020;-82
2021/09/06 07:50:50;;;;;;;12.93;7.40;;;14.90;99.90;;;15.83;100.00;98843.59;5063174;28;20535;-81
2021/09/06 07:53:19;;;;;;;13.13;8.00;;;15.00;99.90;;;15.85;100.00;98837.13;5068310;28;20842;-82
2021/09/06 07:55:48;;;;;;;12.97;8.43;;;15.00;99.90;;;15.89;100.00;98837.53;5054731;28;20489;-81
2021/09/06 07:58:16;;;;;;;12.10;8.27;;;15.00;99.90;;;15.95;100.00;98842.00;5063349;28;20464;-83
2021/09/06 08:00:46;;;;;;;13.80;7.20;;;15.20;99.90;;;15.99;100.00;98843.22;5065308;28;20487;-82
2021/09/06 08:03:16;;;;;;;13.90;8.73;;;15.20;99.90;;;16.04;100.00;98841.59;5065823;28;20578;-82
2021/09/06 08:05:45;;;;;;;13.60;8.43;;;15.20;99.90;;;16.10;100.00;98850.53;5065389;28;20468;-82
2021/09/06 08:08:14;;;;;;;11.13;7.40;;;15.30;99.90;;;16.16;100.00;98844.44;5060006;28;20917;-82
2021/09/06 08:10:43;;;;;;;10.10;7.23;;;15.30;99.90;;;16.20;100.00;98850.94;5056739;28;20553;-82
2021/09/06 08:13:12;;;;;;;11.77;7.87;;;15.40;99.90;;;16.25;100.00;98848.50;5061836;28;20491;-82
2021/09/06 08:15:41;;;;;;;13.73;8.47;;;15.50;99.90;;;16.31;100.00;98857.44;5052670;28;20480;-81
2021/09/06 08:18:10;;;;;;;16.17;7.97;;;15.50;99.90;;;16.37;100.00;98856.63;5065525;28;20459;-82
2021/09/06 08:20:40;;;;;;;15.03;8.30;;;15.60;99.90;;;16.43;100.00;98853.97;5062482;28;21029;-82
2021/09/06 08:23:08;;;;;;;15.27;8.70;;;15.70;99.90;;;16.50;100.00;98851.31;5060676;28;20464;-82
2021/09/06 08:25:37;;;;;;;13.97;8.83;;;15.80;99.90;;;16.56;100.00;98856.63;5062451;28;20456;-81
2021/09/06 08:28:06;;;;;;;17.50;8.10;;;15.90;99.90;;;16.63;100.00;98847.88;5059069;28;20601;-81
2021/09/06 08:30:35;;;;;;;12.40;9.03;;;15.90;99.90;;;16.71;100.00;98858.25;5057842;28;20500;-81
2021/09/06 08:33:04;;;;;;;13.43;8.23;;;16.00;99.90;;;16.77;100.00;98852.94;5056407;28;20518;-82
2021/09/06 08:35:35;;;;;;;14.60;8.90;;;16.10;99.90;;;16.85;100.00;98857.19;5055437;28;20551;-82
2021/09/06 08:38:05;;;;;;;15.17;8.90;;;16.20;99.90;;;16.92;100.00;98850.06;5057001;28;20487;-82
2021/09/06 08:40:33;;;;;;;12.03;8.93;;;16.20;99.90;;;17.00;100.00;98857.78;5061213;28;20499;-81
2021/09/06 08:43:06;;;;;;;13.40;9.17;;;16.30;99.90;;;17.08;100.00;98857.53;5058221;28;20543;-81
2021/09/06 08:45:36;;;;;;;13.53;9.07;;;16.40;99.90;;;17.14;100.00;98859.34;5052036;28;20452;-82
2021/09/06 08:48:06;;;;;;;11.17;8.23;;;16.50;99.90;;;17.23;100.00;98855.44;5051670;28;20464;-82
2021/09/06 08:50:36;;;;;;;15.57;9.13;;;16.60;99.90;;;17.29;100.00;98856.44;5058918;28;20491;-82
2021/09/06 08:53:07;;;;;;;13.60;8.90;;;16.60;99.90;;;17.36;100.00;98862.50;5057281;28;20503;-82
2021/09/06 08:55:39;;;;;;;12.70;9.37;;;16.70;99.90;;;17.43;100.00;98860.66;5055513;28;20480;-82
2021/09/06 08:58:28;;;;;;;14.13;9.50;;;16.80;99.90;;;17.49;100.00;98851.88;5055665;28;20449;-82
2021/09/06 09:00:58;;;;;;;13.50;8.90;;;16.90;99.90;;;17.55;100.00;98851.84;5055145;28;20887;-82
2021/09/06 09:03:28;;;;;;;12.77;8.63;;;16.90;99.90;;;17.62;100.00;98857.13;5055600;28;20489;-82
2021/09/06 09:05:59;;;;;;;13.60;9.10;;;17.00;99.90;;;17.69;100.00;98855.25;5053673;28;20563;-82
2021/09/06 09:08:29;;;;;;;12.80;8.90;;;17.10;99.90;;;17.77;100.00;98856.84;5059543;28;23491;-82
2021/09/06 09:11:00;;;;;;;99.53;60.70;;;17.20;99.90;;;17.82;100.00;98857.81;5061525;28;20493;-82
2021/09/06 09:13:31;;;;;;;20.93;12.87;;;17.20;99.90;;;17.89;100.00;98857.78;5062378;28;20823;-82
2021/09/06 09:16:01;;;;;;;16.20;9.03;;;17.30;99.90;;;17.97;100.00;98854.88;5061723;28;20468;-82
2021/09/06 09:18:33;;;;;;;12.17;8.30;;;17.40;99.90;;;18.03;100.00;98860.13;5062715;28;20468;-82
2021/09/06 09:21:06;;;;;;;14.80;9.10;;;17.40;99.90;;;18.10;100.00;98860.09;5059991;28;20501;-82
2021/09/06 09:23:43;;;;;;;11.80;8.40;;;17.50;99.90;;;18.17;100.00;98854.72;5058977;28;20927;-82
2021/09/06 09:26:13;;;;;;;21.10;8.70;;;17.60;99.90;;;18.23;100.00;98854.69;5063747;28;20883;-82
2021/09/06 09:28:45;;;;;;;13.73;8.37;;;17.70;99.90;;;18.30;100.00;98849.31;5065257;28;20452;-82
2021/09/06 09:31:17;;;;;;;12.90;7.70;;;17.70;99.90;;;18.36;100.00;98854.56;5066186;28;20494;-82
2021/09/06 09:33:57;;;;;;;13.00;9.07;;;17.80;99.90;;;18.42;100.00;98851.06;5055150;28;20465;-82
2021/09/06 09:36:32;;;;;;;9.60;7.33;;;17.90;99.90;;;18.49;100.00;98849.19;5064919;28;20846;-82
2021/09/06 09:39:11;;;;;;;12.40;7.50;;;18.00;99.90;;;18.55;100.00;98844.88;5061838;28;20452;-82
2021/09/06 09:41:42;;;;;;;11.77;7.77;;;18.00;99.90;;;18.60;100.00;98845.81;5061232;28;20551;-82
2021/09/06 09:44:15;;;;;;;10.10;7.50;;;18.10;99.90;;;18.68;100.00;98842.06;5057968;28;20464;-81
2021/09/06 09:46:55;;;;;;;10.13;7.00;;;18.10;99.90;;;18.77;100.00;98845.25;5060182;28;20976;-82
2021/09/06 09:49:25;;;;;;;8.83;6.67;;;18.20;99.90;;;18.82;100.00;98842.75;5065668;28;20514;-83
2021/09/06 09:51:55;;;;;;;10.83;7.33;;;18.30;99.90;;;18.89;100.00;98844.31;5062900;28;20476;-82
2021/09/06 09:54:26;;;;;;;77.40;38.80;;;18.30;99.90;;;18.95;100.00;98843.41;5065943;28;20485;-82
2021/09/06 09:56:55;;;;;;;16.53;10.80;;;18.50;99.90;;;19.02;100.00;98843.38;5064646;28;20857;-81
2021/09/06 09:59:24;;;;;;;13.40;6.97;;;18.50;99.90;;;19.07;100.00;98846.97;5072842;28;20980;-82
2021/09/06 10:02:00;;;;;;;12.10;6.60;;;18.50;99.90;;;19.13;100.00;98842.59;5063835;28;20498;-81
2021/09/06 10:04:35;;;;;;;13.83;6.20;;;18.60;99.90;;;19.20;100.00;98846.00;5062047;28;20456;-82
2021/09/06 10:07:06;;;;;;;10.73;6.23;;;18.70;99.90;;;19.26;100.00;98839.81;5059024;28;20964;-82
2021/09/06 10:09:43;;;;;;;12.60;6.43;;;18.70;99.90;;;19.33;100.00;98845.03;5062417;28;20460;-82
2021/09/06 10:12:20;;;;;;;8.50;5.63;;;18.80;99.90;;;19.38;100.00;98843.31;5064548;28;20953;-81
2021/09/06 10:14:54;;;;;;;12.70;7.10;;;18.90;99.90;;;19.43;100.00;98838.19;5064826;28;20527;-82
2021/09/06 10:17:36;;;;;;;8.77;6.30;;;18.90;99.90;;;19.50;100.00;98833.63;5061407;28;20453;-83